createdAt,value
2023-04-29T00:00:43.596Z,99638.56
2023-04-29T00:01:45.770Z,99630.56
2023-04-29T00:02:47.966Z,99632.84
2023-04-29T00:03:50.385Z,99634.09
2023-04-29T00:04:52.945Z,99639.03
2023-04-29T00:05:55.283Z,99633.44
2023-04-29T00:06:57.500Z,99632.75
2023-04-29T00:07:59.410Z,99643.25
2023-04-29T00:09:01.328Z,99635.03
2023-04-29T00:10:03.592Z,99631.25
2023-04-29T00:11:05.450Z,99633.56
2023-04-29T00:12:07.699Z,99642.22
2023-04-29T00:13:09.893Z,99638.56
2023-04-29T00:14:11.778Z,99636.97
2023-04-29T00:15:13.671Z,99627.84
2023-04-29T00:16:15.579Z,99631.16
2023-04-29T00:17:18.298Z,99628.06
2023-04-29T00:18:20.161Z,99627.28
2023-04-29T00:19:22.118Z,99626.13
2023-04-29T00:20:24.053Z,99630.69
2023-04-29T00:21:27.454Z,99622.72
2023-04-29T00:22:30.104Z,99623.75
2023-04-29T00:23:36.080Z,99622.38
2023-04-29T00:24:37.959Z,99624.22
2023-04-29T00:25:40.000Z,99626.16
2023-04-29T00:26:41.877Z,99619.22
2023-04-29T00:27:44.104Z,99619.22
2023-04-29T00:28:45.964Z,99619.31
2023-04-29T00:29:47.846Z,99615.41
2023-04-29T00:30:49.797Z,99622.38
2023-04-29T00:31:51.775Z,99618.72
2023-04-29T00:32:55.167Z,99618.50
2023-04-29T00:33:57.458Z,99617.72
2023-04-29T00:34:59.313Z,99616.12
2023-04-29T00:36:02.179Z,99618.28
2023-04-29T00:37:04.124Z,99612.34
2023-04-29T00:38:06.426Z,99619.63
2023-04-29T00:39:08.315Z,99617.25
2023-04-29T00:40:10.668Z,99612.81
2023-04-29T00:41:13.250Z,99619.63
2023-04-29T00:42:15.098Z,99624.53
2023-04-29T00:43:17.217Z,99616.09
2023-04-29T00:44:19.201Z,99621.78
2023-04-29T00:45:21.086Z,99618.16
2023-04-29T00:46:23.196Z,99619.59
2023-04-29T00:47:25.118Z,99622.84
2023-04-29T00:48:27.619Z,99620.44
2023-04-29T00:49:29.593Z,99619.72
2023-04-29T00:50:31.617Z,99623.47
2023-04-29T00:51:34.456Z,99624.84
2023-04-29T00:52:38.444Z,99624.72
2023-04-29T00:53:42.252Z,99620.66
2023-04-29T00:54:44.734Z,99622.25
2023-04-29T00:55:48.256Z,99625.22
2023-04-29T00:56:51.160Z,99625.09
2023-04-29T00:57:53.148Z,99630.44
2023-04-29T00:58:55.482Z,99618.72
2023-04-29T00:59:58.935Z,99624.28
2023-04-29T01:01:04.336Z,99616.88
2023-04-29T01:02:06.647Z,99622.47
2023-04-29T01:03:09.319Z,99616.28
2023-04-29T01:04:11.693Z,99624.28
2023-04-29T01:05:15.177Z,99622.22
2023-04-29T01:06:44.656Z,99619.59
2023-04-29T01:07:59.354Z,99616.81
2023-04-29T01:09:39.919Z,99618.53
2023-04-29T01:10:53.232Z,99620.94
2023-04-29T01:12:31.722Z,99618.31
2023-04-29T01:13:49.968Z,99613.53
2023-04-29T01:15:11.117Z,99615.16
2023-04-29T01:16:23.429Z,99612.03
2023-04-29T01:17:29.909Z,99614.88
2023-04-29T01:18:49.926Z,99609.75
2023-04-29T01:19:56.018Z,99616.56
2023-04-29T01:20:59.732Z,99615.91
2023-04-29T01:22:02.062Z,99618.59
2023-04-29T01:23:05.065Z,99610.75
2023-04-29T01:24:07.024Z,99607.47
2023-04-29T01:25:10.051Z,99609.28
2023-04-29T01:26:17.286Z,99612.13
2023-04-29T01:27:25.153Z,99606.75
2023-04-29T01:28:48.854Z,99610.53
2023-04-29T01:30:12.933Z,99609.91
2023-04-29T01:31:46.885Z,99609.84
2023-04-29T01:33:21.661Z,99619.31
2023-04-29T01:34:48.376Z,99607.34
2023-04-29T01:36:17.957Z,99602.19
2023-04-29T01:37:33.932Z,99613.69
2023-04-29T01:38:45.035Z,99612.13
2023-04-29T01:39:55.139Z,99610.72
2023-04-29T01:41:10.960Z,99610.38
2023-04-29T01:42:31.076Z,99612.03
2023-04-29T01:43:37.439Z,99614.00
2023-04-29T01:44:42.642Z,99616.75
2023-04-29T01:45:45.090Z,99618.94
2023-04-29T01:46:54.368Z,99615.38
2023-04-29T01:47:59.355Z,99605.84
2023-04-29T01:49:01.832Z,99614.06
2023-04-29T01:50:04.344Z,99609.88
2023-04-29T01:51:07.229Z,99612.91
2023-04-29T01:52:09.314Z,99608.25
2023-04-29T01:53:11.517Z,99606.53
2023-04-29T01:54:13.408Z,99605.19
2023-04-29T01:55:16.904Z,99601.91
2023-04-29T01:56:19.748Z,99609.88
2023-04-29T01:57:21.707Z,99616.41
2023-04-29T01:58:24.053Z,99610.28
2023-04-29T01:59:26.892Z,99603.44
2023-04-29T02:00:29.247Z,99606.63
2023-04-29T02:01:31.836Z,99605.59
2023-04-29T02:02:33.921Z,99600.22
2023-04-29T02:03:39.193Z,99595.94
2023-04-29T02:04:43.014Z,99598.25
2023-04-29T02:05:46.064Z,99596.87
2023-04-29T02:06:48.347Z,99596.59
2023-04-29T02:07:52.443Z,99597.47
2023-04-29T02:08:54.844Z,99595.25
2023-04-29T02:09:56.872Z,99601.84
2023-04-29T02:11:00.430Z,99597.63
2023-04-29T02:12:04.626Z,99598.44
2023-04-29T02:13:06.523Z,99598.78
2023-04-29T02:14:08.490Z,99599.69
2023-04-29T02:15:10.536Z,99606.66
2023-04-29T02:16:14.200Z,99601.09
2023-04-29T02:17:16.890Z,99605.56
2023-04-29T02:18:19.258Z,99606.06
2023-04-29T02:19:22.333Z,99600.97
2023-04-29T02:20:26.169Z,99610.53
2023-04-29T02:21:28.076Z,99607.59
2023-04-29T02:22:30.296Z,99615.31
2023-04-29T02:23:32.425Z,99612.03
2023-04-29T02:24:34.326Z,99612.03
2023-04-29T02:25:36.465Z,99611.56
2023-04-29T02:26:38.389Z,99611.94
2023-04-29T02:27:40.599Z,99609.34
2023-04-29T02:28:42.657Z,99610.38
2023-04-29T02:29:44.545Z,99603.09
2023-04-29T02:30:46.663Z,99614.19
2023-04-29T02:31:48.579Z,99607.78
2023-04-29T02:32:51.466Z,99606.75
2023-04-29T02:33:54.286Z,99609.38
2023-04-29T02:34:56.256Z,99608.34
2023-04-29T02:35:59.748Z,99605.06
2023-04-29T02:37:01.778Z,99605.84
2023-04-29T02:38:03.930Z,99608.81
2023-04-29T02:39:05.844Z,99608.69
2023-04-29T02:40:08.314Z,99608.81
2023-04-29T02:41:10.313Z,99609.56
2023-04-29T02:42:12.264Z,99609.81
2023-04-29T02:43:14.432Z,99611.38
2023-04-29T02:44:16.362Z,99605.03
2023-04-29T02:45:18.459Z,99611.44
2023-04-29T02:46:20.671Z,99608.97
2023-04-29T02:47:22.760Z,99605.13
2023-04-29T02:48:24.942Z,99608.03
2023-04-29T02:49:27.954Z,99598.94
2023-04-29T02:50:29.869Z,99600.38
2023-04-29T02:51:31.864Z,99602.44
2023-04-29T02:52:33.750Z,99592.25
2023-04-29T02:53:35.993Z,99594.03
2023-04-29T02:54:37.991Z,99590.37
2023-04-29T02:55:40.421Z,99588.34
2023-04-29T02:56:43.005Z,99599.22
2023-04-29T02:57:44.917Z,99586.00
2023-04-29T02:58:47.355Z,99587.84
2023-04-29T02:59:49.461Z,99591.25
2023-04-29T03:00:51.499Z,99591.47
2023-04-29T03:01:54.674Z,99594.44
2023-04-29T03:02:57.733Z,99593.31
2023-04-29T03:04:00.821Z,99591.38
2023-04-29T03:05:03.680Z,99597.63
2023-04-29T03:06:06.038Z,99591.53
2023-04-29T03:07:08.104Z,99586.72
2023-04-29T03:08:10.384Z,99591.84
2023-04-29T03:09:14.310Z,99594.22
2023-04-29T03:10:19.250Z,99590.59
2023-04-29T03:11:24.615Z,99592.25
2023-04-29T03:12:26.520Z,99588.81
2023-04-29T03:13:28.440Z,99588.75
2023-04-29T03:14:30.767Z,99585.88
2023-04-29T03:15:33.467Z,99586.72
2023-04-29T03:16:35.650Z,99588.47
2023-04-29T03:17:37.872Z,99592.84
2023-04-29T03:18:40.780Z,99589.87
2023-04-29T03:19:42.958Z,99587.34
2023-04-29T03:20:44.824Z,99585.00
2023-04-29T03:21:46.725Z,99585.41
2023-04-29T03:22:48.711Z,99593.03
2023-04-29T03:23:50.630Z,99581.94
2023-04-29T03:24:53.462Z,99585.12
2023-04-29T03:25:56.014Z,99580.16
2023-04-29T03:27:00.226Z,99582.03
2023-04-29T03:28:02.112Z,99579.59
2023-04-29T03:29:06.237Z,99583.44
2023-04-29T03:30:09.246Z,99577.88
2023-04-29T03:31:12.604Z,99578.75
2023-04-29T03:32:14.519Z,99584.53
2023-04-29T03:33:17.152Z,99577.41
2023-04-29T03:34:19.818Z,99581.22
2023-04-29T03:35:22.834Z,99578.66
2023-04-29T03:36:25.831Z,99580.63
2023-04-29T03:37:28.048Z,99579.47
2023-04-29T03:38:31.058Z,99584.97
2023-04-29T03:39:33.008Z,99587.00
2023-04-29T03:40:35.389Z,99581.28
2023-04-29T03:41:37.317Z,99592.53
2023-04-29T03:42:39.229Z,99588.91
2023-04-29T03:43:41.693Z,99600.03
2023-04-29T03:44:43.610Z,99595.06
2023-04-29T03:45:45.873Z,99596.63
2023-04-29T03:46:48.774Z,99591.38
2023-04-29T03:47:50.760Z,99592.16
2023-04-29T03:48:56.028Z,99593.53
2023-04-29T03:49:58.047Z,99586.16
2023-04-29T03:51:00.494Z,99594.12
2023-04-29T03:52:04.740Z,99588.09
2023-04-29T03:53:06.767Z,99598.69
2023-04-29T03:54:09.988Z,99590.59
2023-04-29T03:55:12.773Z,99595.88
2023-04-29T03:56:16.942Z,99604.75
2023-04-29T03:57:19.409Z,99601.28
2023-04-29T03:58:21.470Z,99599.91
2023-04-29T03:59:23.380Z,99596.94
2023-04-29T04:00:31.232Z,99602.31
2023-04-29T04:01:34.152Z,99600.50
2023-04-29T04:02:36.388Z,99601.66
2023-04-29T04:03:38.773Z,99597.66
2023-04-29T04:04:41.541Z,99599.97
2023-04-29T04:05:44.272Z,99598.00
2023-04-29T04:06:51.533Z,99594.47
2023-04-29T04:07:54.033Z,99589.47
2023-04-29T04:08:57.986Z,99586.16
2023-04-29T04:10:00.220Z,99592.44
2023-04-29T04:11:05.013Z,99593.03
2023-04-29T04:12:07.637Z,99595.34
2023-04-29T04:13:09.671Z,99595.53
2023-04-29T04:14:11.900Z,99594.19
2023-04-29T04:15:14.125Z,99591.97
2023-04-29T04:16:16.186Z,99591.63
2023-04-29T04:17:18.382Z,99598.47
2023-04-29T04:18:21.062Z,99595.38
2023-04-29T04:19:23.000Z,99598.47
2023-04-29T04:20:24.995Z,99604.78
2023-04-29T04:21:27.604Z,99600.13
2023-04-29T04:22:30.385Z,99602.63
2023-04-29T04:23:34.113Z,99610.94
2023-04-29T04:24:39.839Z,99613.09
2023-04-29T04:25:48.794Z,99611.03
2023-04-29T04:26:51.593Z,99615.28
2023-04-29T04:27:54.440Z,99614.78
2023-04-29T04:28:57.819Z,99610.78
2023-04-29T04:30:01.029Z,99614.09
2023-04-29T04:31:03.945Z,99615.03
2023-04-29T04:32:06.022Z,99616.88
2023-04-29T04:33:13.399Z,99618.91
2023-04-29T04:34:15.469Z,99626.50
2023-04-29T04:35:23.282Z,99618.56
2023-04-29T04:36:26.620Z,99627.00
2023-04-29T04:37:29.669Z,99619.84
2023-04-29T04:38:32.992Z,99618.56
2023-04-29T04:39:36.588Z,99616.03
2023-04-29T04:40:42.109Z,99618.94
2023-04-29T04:41:45.223Z,99616.50
2023-04-29T04:42:47.361Z,99618.06
2023-04-29T04:43:50.270Z,99619.66
2023-04-29T04:44:54.371Z,99619.78
2023-04-29T04:45:59.547Z,99619.31
2023-04-29T04:47:02.272Z,99620.47
2023-04-29T04:48:05.610Z,99613.78
2023-04-29T04:49:08.239Z,99617.66
2023-04-29T04:50:12.322Z,99615.84
2023-04-29T04:51:14.491Z,99622.09
2023-04-29T04:52:21.403Z,99624.03
2023-04-29T04:53:23.814Z,99614.13
2023-04-29T04:54:26.376Z,99619.91
2023-04-29T04:55:28.839Z,99623.56
2023-04-29T04:56:31.451Z,99619.47
2023-04-29T04:57:33.422Z,99615.59
2023-04-29T04:58:35.821Z,99622.19
2023-04-29T04:59:38.754Z,99612.37
2023-04-29T05:00:44.744Z,99614.28
2023-04-29T05:01:47.072Z,99614.53
2023-04-29T05:02:49.551Z,99609.75
2023-04-29T05:03:51.778Z,99614.28
2023-04-29T05:04:54.716Z,99618.53
2023-04-29T05:05:58.404Z,99619.47
2023-04-29T05:07:00.669Z,99617.53
2023-04-29T05:08:04.231Z,99619.91
2023-04-29T05:09:06.788Z,99620.84
2023-04-29T05:10:10.663Z,99621.94
2023-04-29T05:11:17.833Z,99621.91
2023-04-29T05:12:20.024Z,99616.41
2023-04-29T05:13:22.026Z,99620.63
2023-04-29T05:14:24.050Z,99623.81
2023-04-29T05:15:27.452Z,99614.25
2023-04-29T05:16:30.638Z,99608.88
2023-04-29T05:17:32.946Z,99608.97
2023-04-29T05:18:35.118Z,99604.91
2023-04-29T05:19:37.161Z,99606.13
2023-04-29T05:20:43.676Z,99600.91
2023-04-29T05:21:45.564Z,99597.50
2023-04-29T05:22:47.489Z,99604.59
2023-04-29T05:23:49.971Z,99600.59
2023-04-29T05:24:52.945Z,99596.69
2023-04-29T05:25:55.702Z,99596.91
2023-04-29T05:26:57.574Z,99594.53
2023-04-29T05:27:59.448Z,99601.16
2023-04-29T05:29:01.954Z,99607.88
2023-04-29T05:30:04.679Z,99606.41
2023-04-29T05:31:08.347Z,99608.00
2023-04-29T05:32:11.534Z,99604.84
2023-04-29T05:33:14.064Z,99606.06
2023-04-29T05:34:16.288Z,99604.69
2023-04-29T05:35:18.284Z,99606.19
2023-04-29T05:36:20.808Z,99604.44
2023-04-29T05:37:22.664Z,99609.12
2023-04-29T05:38:29.271Z,99603.66
2023-04-29T05:39:32.341Z,99609.81
2023-04-29T05:40:35.812Z,99602.31
2023-04-29T05:41:41.129Z,99602.09
2023-04-29T05:42:43.736Z,99607.88
2023-04-29T05:43:46.703Z,99610.19
2023-04-29T05:44:48.875Z,99606.19
2023-04-29T05:45:50.825Z,99593.88
2023-04-29T05:46:52.983Z,99600.72
2023-04-29T05:47:55.056Z,99601.94
2023-04-29T05:48:57.705Z,99603.31
2023-04-29T05:50:00.844Z,99606.97
2023-04-29T05:51:03.366Z,99609.81
2023-04-29T05:52:06.726Z,99607.63
2023-04-29T05:53:09.269Z,99610.84
2023-04-29T05:54:11.912Z,99614.81
2023-04-29T05:55:14.028Z,99614.72
2023-04-29T05:56:16.818Z,99615.75
2023-04-29T05:57:19.082Z,99622.34
2023-04-29T05:58:21.332Z,99621.34
2023-04-29T05:59:23.304Z,99627.03
2023-04-29T06:00:25.364Z,99622.84
2023-04-29T06:01:29.222Z,99624.41
2023-04-29T06:02:32.434Z,99627.84
2023-04-29T06:03:34.733Z,99625.91
2023-04-29T06:04:38.276Z,99625.47
2023-04-29T06:05:41.426Z,99623.09
2023-04-29T06:06:44.542Z,99622.50
2023-04-29T06:07:47.142Z,99624.91
2023-04-29T06:08:50.459Z,99625.66
2023-04-29T06:09:52.913Z,99616.41
2023-04-29T06:10:54.955Z,99619.97
2023-04-29T06:11:57.945Z,99620.75
2023-04-29T06:13:00.180Z,99633.66
2023-04-29T06:14:02.363Z,99627.50
2023-04-29T06:15:05.147Z,99631.78
2023-04-29T06:16:07.871Z,99632.41
2023-04-29T06:17:11.125Z,99631.69
2023-04-29T06:18:13.338Z,99625.53
2023-04-29T06:19:15.371Z,99633.97
2023-04-29T06:20:18.254Z,99624.19
2023-04-29T06:21:20.267Z,99626.16
2023-04-29T06:22:22.616Z,99630.56
2023-04-29T06:23:24.623Z,99627.84
2023-04-29T06:24:26.745Z,99632.66
2023-04-29T06:25:28.888Z,99630.03
2023-04-29T06:26:30.894Z,99630.00
2023-04-29T06:27:33.509Z,99633.06
2023-04-29T06:28:35.488Z,99632.94
2023-04-29T06:29:37.553Z,99629.09
2023-04-29T06:30:39.620Z,99637.41
2023-04-29T06:31:41.605Z,99639.31
2023-04-29T06:32:44.239Z,99635.81
2023-04-29T06:33:46.719Z,99644.47
2023-04-29T06:34:49.117Z,99635.56
2023-04-29T06:35:51.845Z,99637.16
2023-04-29T06:36:54.464Z,99637.75
2023-04-29T06:37:57.365Z,99639.69
2023-04-29T06:39:00.954Z,99635.94
2023-04-29T06:40:04.487Z,99638.31
2023-04-29T06:41:07.889Z,99635.94
2023-04-29T06:42:11.105Z,99636.81
2023-04-29T06:43:14.696Z,99634.56
2023-04-29T06:44:19.402Z,99631.81
2023-04-29T06:45:21.510Z,99637.88
2023-04-29T06:46:23.889Z,99626.47
2023-04-29T06:47:26.448Z,99629.66
2023-04-29T06:48:29.709Z,99637.16
2023-04-29T06:49:31.863Z,99636.69
2023-04-29T06:50:34.257Z,99632.34
2023-04-29T06:51:38.017Z,99625.28
2023-04-29T06:52:39.914Z,99630.09
2023-04-29T06:53:42.138Z,99633.63
2023-04-29T06:54:44.039Z,99634.06
2023-04-29T06:55:46.658Z,99629.75
2023-04-29T06:56:48.798Z,99631.53
2023-04-29T06:57:52.677Z,99638.38
2023-04-29T06:58:54.835Z,99637.94
2023-04-29T06:59:56.889Z,99636.47
2023-04-29T07:00:59.827Z,99629.06
2023-04-29T07:02:01.774Z,99628.59
2023-04-29T07:03:03.835Z,99629.97
2023-04-29T07:04:06.361Z,99630.50
2023-04-29T07:05:08.754Z,99629.06
2023-04-29T07:06:10.741Z,99648.69
2023-04-29T07:07:12.585Z,99640.69
2023-04-29T07:08:14.688Z,99633.28
2023-04-29T07:09:16.947Z,99646.94
2023-04-29T07:10:18.813Z,99641.25
2023-04-29T07:11:22.013Z,99644.47
2023-04-29T07:12:26.670Z,99629.66
2023-04-29T07:13:29.225Z,99639.81
2023-04-29T07:14:32.026Z,99637.97
2023-04-29T07:15:35.474Z,99635.81
2023-04-29T07:16:38.272Z,99635.56
2023-04-29T07:17:45.160Z,99634.78
2023-04-29T07:18:47.316Z,99630.00
2023-04-29T07:19:49.830Z,99630.44
2023-04-29T07:20:53.115Z,99632.03
2023-04-29T07:21:55.054Z,99633.91
2023-04-29T07:22:56.977Z,99626.97
2023-04-29T07:24:02.375Z,99630.00
2023-04-29T07:25:04.943Z,99631.62
2023-04-29T07:26:15.679Z,99632.75
2023-04-29T07:27:17.929Z,99635.47
2023-04-29T07:28:19.782Z,99634.69
2023-04-29T07:29:21.690Z,99633.56
2023-04-29T07:30:24.428Z,99629.56
2023-04-29T07:31:26.824Z,99638.69
2023-04-29T07:32:31.927Z,99641.19
2023-04-29T07:33:37.919Z,99646.78
2023-04-29T07:34:40.252Z,99640.50
2023-04-29T07:35:43.501Z,99642.06
2023-04-29T07:36:46.048Z,99645.53
2023-04-29T07:37:48.300Z,99643.94
2023-04-29T07:38:50.167Z,99648.69
2023-04-29T07:39:52.447Z,99645.69
2023-04-29T07:40:54.690Z,99652.13
2023-04-29T07:41:56.671Z,99648.81
2023-04-29T07:42:58.767Z,99649.59
2023-04-29T07:44:00.698Z,99653.19
2023-04-29T07:45:02.577Z,99648.66
2023-04-29T07:46:04.865Z,99651.06
2023-04-29T07:47:07.045Z,99647.66
2023-04-29T07:48:09.655Z,99652.53
2023-04-29T07:49:11.653Z,99644.22
2023-04-29T07:50:13.652Z,99640.94
2023-04-29T07:51:15.983Z,99652.69
2023-04-29T07:52:18.015Z,99644.81
2023-04-29T07:53:19.913Z,99649.59
2023-04-29T07:54:22.642Z,99643.09
2023-04-29T07:55:24.540Z,99645.97
2023-04-29T07:56:27.070Z,99641.84
2023-04-29T07:57:29.088Z,99641.63
2023-04-29T07:58:31.274Z,99646.62
2023-04-29T07:59:34.448Z,99655.78
2023-04-29T08:00:38.088Z,99657.94
2023-04-29T08:01:43.690Z,99651.44
2023-04-29T08:02:46.331Z,99657.72
2023-04-29T08:03:48.829Z,99657.47
2023-04-29T08:04:52.485Z,99661.16
2023-04-29T08:05:56.406Z,99650.28
2023-04-29T08:06:58.673Z,99656.00
2023-04-29T08:08:00.536Z,99644.41
2023-04-29T08:09:03.314Z,99659.09
2023-04-29T08:10:05.966Z,99647.81
2023-04-29T08:11:07.821Z,99656.56
2023-04-29T08:12:12.732Z,99654.44
2023-04-29T08:13:16.015Z,99655.22
2023-04-29T08:14:17.976Z,99653.50
2023-04-29T08:15:20.351Z,99648.81
2023-04-29T08:16:22.348Z,99656.31
2023-04-29T08:17:24.642Z,99654.62
2023-04-29T08:18:26.647Z,99663.47
2023-04-29T08:19:28.556Z,99658.81
2023-04-29T08:20:30.494Z,99653.25
2023-04-29T08:21:32.513Z,99652.31
2023-04-29T08:22:34.786Z,99647.12
2023-04-29T08:23:36.741Z,99651.78
2023-04-29T08:24:38.698Z,99653.84
2023-04-29T08:25:44.071Z,99650.16
2023-04-29T08:26:46.063Z,99645.59
2023-04-29T08:27:48.748Z,99649.09
2023-04-29T08:28:50.757Z,99643.63
2023-04-29T08:29:52.645Z,99642.56
2023-04-29T08:30:55.416Z,99650.84
2023-04-29T08:31:57.542Z,99647.34
2023-04-29T08:32:59.999Z,99647.06
2023-04-29T08:34:01.957Z,99646.72
2023-04-29T08:35:04.149Z,99647.34
2023-04-29T08:36:06.343Z,99650.09
2023-04-29T08:37:08.321Z,99647.25
2023-04-29T08:38:10.489Z,99649.69
2023-04-29T08:39:12.446Z,99642.31
2023-04-29T08:40:14.442Z,99651.19
2023-04-29T08:41:16.966Z,99649.63
2023-04-29T08:42:31.070Z,99649.31
2023-04-29T08:43:37.301Z,99650.97
2023-04-29T08:44:41.346Z,99644.69
2023-04-29T08:45:44.022Z,99647.72
2023-04-29T08:46:46.662Z,99644.72
2023-04-29T08:47:49.630Z,99645.03
2023-04-29T08:48:53.011Z,99651.28
2023-04-29T08:49:55.181Z,99652.47
2023-04-29T08:50:58.789Z,99651.69
2023-04-29T08:52:00.855Z,99649.84
2023-04-29T08:53:03.044Z,99654.47
2023-04-29T08:54:05.258Z,99648.41
2023-04-29T08:55:08.123Z,99657.81
2023-04-29T08:56:16.665Z,99653.13
2023-04-29T08:57:18.762Z,99658.91
2023-04-29T08:58:22.173Z,99660.38
2023-04-29T08:59:25.465Z,99662.91
2023-04-29T09:00:27.809Z,99661.00
2023-04-29T09:01:30.161Z,99662.03
2023-04-29T09:02:32.800Z,99663.56
2023-04-29T09:03:43.176Z,99658.59
2023-04-29T09:04:57.991Z,99666.41
2023-04-29T09:06:01.669Z,99662.09
2023-04-29T09:07:06.047Z,99663.22
2023-04-29T09:08:08.989Z,99666.06
2023-04-29T09:09:11.881Z,99667.84
2023-04-29T09:10:15.054Z,99665.78
2023-04-29T09:11:17.298Z,99663.50
2023-04-29T09:12:19.425Z,99670.63
2023-04-29T09:13:29.621Z,99668.31
2023-04-29T09:14:36.120Z,99668.47
2023-04-29T09:15:41.433Z,99672.84
2023-04-29T09:16:47.561Z,99668.25
2023-04-29T09:17:49.948Z,99665.63
2023-04-29T09:18:52.508Z,99671.66
2023-04-29T09:19:57.064Z,99669.69
2023-04-29T09:20:59.268Z,99677.94
2023-04-29T09:22:07.317Z,99672.09
2023-04-29T09:23:09.332Z,99675.59
2023-04-29T09:24:11.233Z,99673.37
2023-04-29T09:25:14.160Z,99676.50
2023-04-29T09:26:17.001Z,99673.09
2023-04-29T09:27:29.533Z,99675.91
2023-04-29T09:28:31.775Z,99676.94
2023-04-29T09:29:34.939Z,99675.28
2023-04-29T09:30:45.920Z,99684.12
2023-04-29T09:31:48.970Z,99679.97
2023-04-29T09:33:08.747Z,99676.84
2023-04-29T09:34:14.293Z,99691.06
2023-04-29T09:35:27.393Z,99688.25
2023-04-29T09:36:38.562Z,99678.66
2023-04-29T09:37:41.859Z,99685.78
2023-04-29T09:38:55.258Z,99679.00
2023-04-29T09:39:57.245Z,99681.22
2023-04-29T09:41:02.361Z,99677.38
2023-04-29T09:42:04.548Z,99679.47
2023-04-29T09:43:14.258Z,99671.50
2023-04-29T09:44:16.689Z,99675.47
2023-04-29T09:45:43.131Z,99671.34
2023-04-29T09:46:58.982Z,99666.63
2023-04-29T09:48:05.793Z,99673.16
2023-04-29T09:49:27.996Z,99666.44
2023-04-29T09:50:29.964Z,99672.19
2023-04-29T09:51:34.764Z,99667.03
2023-04-29T09:52:42.783Z,99671.44
2023-04-29T09:53:45.285Z,99665.31
2023-04-29T09:54:47.487Z,99675.31
2023-04-29T09:56:05.372Z,99660.47
2023-04-29T09:57:09.382Z,99669.75
2023-04-29T09:58:40.253Z,99669.00
2023-04-29T09:59:42.995Z,99665.69
2023-04-29T10:00:45.217Z,99667.31
2023-04-29T10:01:58.137Z,99663.22
2023-04-29T10:03:02.372Z,99658.09
2023-04-29T10:04:06.157Z,99667.94
2023-04-29T10:05:10.496Z,99655.88
2023-04-29T10:06:13.194Z,99661.53
2023-04-29T10:07:17.472Z,99665.84
2023-04-29T10:08:19.750Z,99660.31
2023-04-29T10:09:23.687Z,99659.97
2023-04-29T10:10:29.534Z,99663.22
2023-04-29T10:11:32.311Z,99660.63
2023-04-29T10:12:40.063Z,99655.03
2023-04-29T10:13:44.282Z,99660.84
2023-04-29T10:15:01.987Z,99662.03
2023-04-29T10:16:25.541Z,99658.87
2023-04-29T10:17:41.071Z,99655.88
2023-04-29T10:18:52.142Z,99655.81
2023-04-29T10:20:05.948Z,99657.91
2023-04-29T10:21:11.678Z,99653.97
2023-04-29T10:22:22.702Z,99648.84
2023-04-29T10:23:25.685Z,99649.34
2023-04-29T10:24:28.080Z,99642.03
2023-04-29T10:25:30.625Z,99647.56
2023-04-29T10:26:34.130Z,99639.69
2023-04-29T10:27:37.937Z,99645.03
2023-04-29T10:28:42.354Z,99640.84
2023-04-29T10:29:45.255Z,99640.78
2023-04-29T10:30:51.860Z,99644.09
2023-04-29T10:31:55.932Z,99641.28
2023-04-29T10:33:02.103Z,99643.66
2023-04-29T10:34:04.116Z,99639.59
2023-04-29T10:35:10.079Z,99640.91
2023-04-29T10:36:12.968Z,99639.62
2023-04-29T10:37:16.380Z,99638.31
2023-04-29T10:38:29.396Z,99649.38
2023-04-29T10:39:56.373Z,99636.63
2023-04-29T10:41:03.992Z,99634.41
2023-04-29T10:42:16.345Z,99632.41
2023-04-29T10:43:24.309Z,99632.91
2023-04-29T10:44:26.578Z,99631.41
2023-04-29T10:45:35.178Z,99636.41
2023-04-29T10:46:38.082Z,99628.28
2023-04-29T10:47:40.047Z,99633.00
2023-04-29T10:48:43.819Z,99623.62
2023-04-29T10:50:04.327Z,99627.50
2023-04-29T10:51:06.634Z,99618.94
2023-04-29T10:52:09.122Z,99626.06
2023-04-29T10:53:10.990Z,99618.06
2023-04-29T10:54:15.240Z,99622.88
2023-04-29T10:55:17.200Z,99617.78
2023-04-29T10:56:19.069Z,99618.53
2023-04-29T10:57:21.990Z,99615.19
2023-04-29T10:58:41.406Z,99614.34
2023-04-29T10:59:43.303Z,99614.69
2023-04-29T11:00:45.198Z,99611.00
2023-04-29T11:01:52.150Z,99611.06
2023-04-29T11:02:58.769Z,99611.59
2023-04-29T11:04:05.315Z,99606.81
2023-04-29T11:05:12.600Z,99609.47
2023-04-29T11:06:15.450Z,99614.78
2023-04-29T11:07:30.034Z,99610.25
2023-04-29T11:08:39.936Z,99604.06
2023-04-29T11:09:41.848Z,99601.97
2023-04-29T11:10:44.079Z,99596.66
2023-04-29T11:11:55.345Z,99599.91
2023-04-29T11:13:26.282Z,99603.50
2023-04-29T11:14:51.709Z,99606.16
2023-04-29T11:16:14.646Z,99599.91
2023-04-29T11:17:19.900Z,99602.63
2023-04-29T11:18:23.384Z,99594.44
2023-04-29T11:19:34.656Z,99598.44
2023-04-29T11:21:08.640Z,99591.06
2023-04-29T11:22:21.148Z,99593.88
2023-04-29T11:23:27.260Z,99585.72
2023-04-29T11:24:30.444Z,99580.13
2023-04-29T11:25:32.274Z,99579.91
2023-04-29T11:26:35.935Z,99587.84
2023-04-29T11:27:40.467Z,99583.03
2023-04-29T11:28:43.572Z,99581.16
2023-04-29T11:29:47.577Z,99582.81
2023-04-29T11:30:51.482Z,99580.72
2023-04-29T11:32:07.901Z,99580.50
2023-04-29T11:33:09.924Z,99581.06
2023-04-29T11:34:11.881Z,99579.25
2023-04-29T11:35:14.996Z,99584.00
2023-04-29T11:36:16.894Z,99579.25
2023-04-29T11:37:27.155Z,99587.41
2023-04-29T11:38:30.392Z,99574.97
2023-04-29T11:39:36.223Z,99569.69
2023-04-29T11:40:50.787Z,99570.78
2023-04-29T11:41:52.893Z,99567.34
2023-04-29T11:42:55.087Z,99575.00
2023-04-29T11:43:58.683Z,99575.00
2023-04-29T11:45:00.803Z,99574.47
2023-04-29T11:46:02.776Z,99570.78
2023-04-29T11:47:08.221Z,99559.94
2023-04-29T11:48:10.469Z,99571.56
2023-04-29T11:49:12.382Z,99564.69
2023-04-29T11:50:17.792Z,99561.28
2023-04-29T11:51:20.135Z,99571.03
2023-04-29T11:52:22.048Z,99566.56
2023-04-29T11:53:27.895Z,99565.22
2023-04-29T11:54:30.783Z,99557.81
2023-04-29T11:55:32.725Z,99567.31
2023-04-29T11:56:37.774Z,99563.09
2023-04-29T11:57:40.780Z,99561.50
2023-04-29T11:58:44.368Z,99563.03
2023-04-29T11:59:53.565Z,99572.53
2023-04-29T12:00:55.529Z,99570.69
2023-04-29T12:01:59.439Z,99574.13
2023-04-29T12:03:02.052Z,99566.53
2023-04-29T12:04:07.536Z,99569.38
2023-04-29T12:05:10.315Z,99574.13
2023-04-29T12:06:15.254Z,99574.28
2023-04-29T12:07:20.547Z,99572.63
2023-04-29T12:08:29.628Z,99574.47
2023-04-29T12:09:42.691Z,99570.28
2023-04-29T12:10:44.789Z,99564.94
2023-04-29T12:11:47.164Z,99564.63
2023-04-29T12:12:49.674Z,99568.56
2023-04-29T12:13:51.858Z,99569.38
2023-04-29T12:14:54.519Z,99561.22
2023-04-29T12:15:58.392Z,99556.66
2023-04-29T12:17:00.643Z,99559.84
2023-04-29T12:18:03.071Z,99560.16
2023-04-29T12:19:05.387Z,99558.16
2023-04-29T12:20:10.708Z,99558.44
2023-04-29T12:21:13.386Z,99558.47
2023-04-29T12:22:15.283Z,99562.72
2023-04-29T12:23:20.212Z,99562.44
2023-04-29T12:24:22.209Z,99561.09
2023-04-29T12:25:28.123Z,99557.75
2023-04-29T12:26:31.406Z,99551.59
2023-04-29T12:27:37.071Z,99556.38
2023-04-29T12:28:42.173Z,99552.94
2023-04-29T12:29:44.091Z,99555.81
2023-04-29T12:30:49.674Z,99555.72
2023-04-29T12:31:51.720Z,99556.00
2023-04-29T12:32:54.072Z,99554.69
2023-04-29T12:33:56.808Z,99549.13
2023-04-29T12:34:58.657Z,99546.50
2023-04-29T12:36:00.544Z,99543.09